Time;durP1;ratioP1;P1;durP2;ratioP2;P2;SDS_P1;SDS_P2;PMS_P1;PMS_P2;Temp;Humidity;BMP_temperature;BMP_pressure;BME280_temperature;BME280_humidity;BME280_pressure;Samples;Min_cycle;Max_cycle;Signal;HPM_P1;HPM_P2
2022/09/21 00:01:24;;;;;;;6.90;2.00;;;;;;;14.91;100.00;101738.56;4953347;29;20043;-90
2022/09/21 00:03:58;;;;;;;6.00;2.50;;;;;;;14.86;100.00;101736.16;4970737;28;20047;-91
2022/09/21 00:06:29;;;;;;;6.95;2.65;;;;;;;14.84;100.00;101734.47;4974101;28;20062;-90
2022/09/21 00:08:56;;;;;;;8.48;2.60;;;;;;;14.80;100.00;101721.44;4954137;28;20039;-90
2022/09/21 00:11:28;;;;;;;8.50;2.67;;;;;;;14.73;100.00;101724.34;4947008;28;20050;-91
2022/09/21 00:13:59;;;;;;;6.28;2.00;;;;;;;14.81;100.00;101714.38;4953428;28;20063;-89
2022/09/21 00:16:27;;;;;;;8.82;2.20;;;;;;;14.89;100.00;101690.31;4957741;28;20051;-89
2022/09/21 00:18:54;;;;;;;6.30;2.13;;;;;;;15.05;100.00;101699.34;4957287;28;20055;-89
2022/09/21 00:21:21;;;;;;;5.80;1.92;;;;;;;15.06;100.00;101692.28;4963080;28;20051;-89
2022/09/21 00:23:48;;;;;;;11.80;2.20;;;;;;;15.16;100.00;101685.72;4947295;28;20062;-89
2022/09/21 00:26:17;;;;;;;6.90;2.20;;;;;;;15.13;100.00;101705.16;4957131;28;20062;-89
2022/09/21 00:28:44;;;;;;;6.45;2.17;;;;;;;14.98;100.00;101711.06;4949402;29;20047;-90
2022/09/21 00:31:14;;;;;;;6.32;2.25;;;;;;;14.99;100.00;101703.06;4955289;28;20434;-90
2022/09/21 00:33:45;;;;;;;8.30;2.30;;;;;;;15.05;100.00;101687.91;4960251;28;20057;-89
2022/09/21 00:36:13;;;;;;;9.05;2.28;;;;;;;15.16;100.00;101697.13;4973336;28;20055;-89
2022/09/21 00:38:40;;;;;;;6.35;2.10;;;;;;;14.88;100.00;101692.13;4956836;28;20077;-89
2022/09/21 00:41:09;;;;;;;6.85;2.05;;;;;;;15.00;100.00;101669.66;4956292;28;20047;-89
2022/09/21 00:43:41;;;;;;;7.75;2.60;;;;;;;15.00;100.00;101682.84;4942005;28;20577;-89
2022/09/21 00:46:28;;;;;;;5.97;2.10;;;;;;;14.83;100.00;101695.84;4957312;28;20050;-89
2022/09/21 00:48:56;;;;;;;9.60;2.42;;;;;;;14.93;100.00;101691.94;4950491;28;20039;-89
2022/09/21 00:51:24;;;;;;;7.25;2.28;;;;;;;15.06;100.00;101708.13;4949491;28;20050;-90
2022/09/21 00:53:57;;;;;;;6.72;2.20;;;;;;;15.09;100.00;101705.34;4973639;28;20066;-91
2022/09/21 00:56:24;;;;;;;7.50;2.10;;;;;;;15.01;100.00;101705.66;4957446;28;20062;-90
2022/09/21 00:58:53;;;;;;;6.78;2.17;;;;;;;14.94;100.00;101709.47;4972353;28;20518;-90
2022/09/21 01:01:20;;;;;;;6.22;1.95;;;;;;;14.90;100.00;101713.16;4956452;28;20074;-91
2022/09/21 01:03:50;;;;;;;7.78;2.30;;;;;;;14.67;100.00;101683.28;4962164;28;20493;-91
2022/09/21 01:06:19;;;;;;;8.30;2.55;;;;;;;14.54;100.00;101693.44;4956820;28;20102;-91
2022/09/21 01:08:51;;;;;;;7.57;2.20;;;;;;;14.48;100.00;101683.09;4956220;28;20095;-90
2022/09/21 01:11:48;;;;;;;6.90;2.47;;;;;;;14.73;100.00;101705.91;4949161;28;20081;-90
2022/09/21 01:14:33;;;;;;;6.68;2.17;;;;;;;14.65;100.00;101711.47;4955375;28;20280;-90
2022/09/21 01:17:18;;;;;;;7.20;2.10;;;;;;;14.48;100.00;101680.47;4973730;28;20051;-90
2022/09/21 01:20:00;;;;;;;7.22;2.50;;;;;;;14.52;100.00;101704.91;4954528;28;20055;-90
2022/09/21 01:22:51;;;;;;;5.57;1.92;;;;;;;14.51;100.00;101706.72;4967420;28;20658;-90
2022/09/21 01:25:52;;;;;;;6.70;2.30;;;;;;;14.49;100.00;101705.91;4944903;28;20054;-90
2022/09/21 01:28:44;;;;;;;7.07;2.38;;;;;;;14.33;100.00;101708.28;4956818;28;20039;-90
2022/09/21 01:31:21;;;;;;;5.60;2.00;;;;;;;13.90;100.00;101654.59;4951282;28;20054;-91
2022/09/21 01:33:53;;;;;;;5.85;2.00;;;;;;;13.79;100.00;101628.66;4956456;28;20624;-90
2022/09/21 01:36:27;;;;;;;5.97;1.85;;;;;;;14.35;100.00;101702.97;4956632;28;20520;-91
2022/09/21 01:39:00;;;;;;;7.10;2.28;;;;;;;14.10;100.00;101690.69;4956410;28;20456;-90
2022/09/21 01:41:29;;;;;;;;;;;;;;;14.15;100.00;101696.66;4957235;28;20066;-90
2022/09/21 01:44:07;;;;;;;6.57;2.05;;;;;;;13.91;100.00;101669.44;4956855;28;20311;-89
2022/09/21 01:46:36;;;;;;;5.05;1.55;;;;;;;14.16;100.00;101686.97;4942497;28;20106;-90
2022/09/21 01:49:16;;;;;;;6.00;1.80;;;;;;;14.03;100.00;101682.16;4937261;29;20051;-90
2022/09/21 01:51:50;;;;;;;5.30;1.70;;;;;;;13.90;100.00;101666.88;4960879;28;20061;-90
2022/09/21 01:54:41;;;;;;;5.75;1.70;;;;;;;13.63;100.00;101657.31;4974241;28;20051;-90
2022/09/21 01:57:18;;;;;;;4.82;1.90;;;;;;;13.62;100.00;101650.31;4960018;28;20051;-90
2022/09/21 01:59:58;;;;;;;4.35;1.58;;;;;;;13.84;100.00;101689.03;4977316;28;20050;-91
2022/09/21 02:02:57;;;;;;;5.68;1.80;;;;;;;13.57;100.00;101667.19;4959944;28;20051;-89
2022/09/21 02:05:27;;;;;;;5.47;1.88;;;;;;;13.68;100.00;101681.66;4947841;28;20117;-90
2022/09/21 02:07:55;;;;;;;8.15;1.98;;;;;;;13.76;100.00;101693.72;4959436;28;20054;-90
2022/09/21 02:10:46;;;;;;;4.63;1.80;;;;;;;13.63;100.00;101686.25;4959387;28;20101;-90
2022/09/21 02:13:16;;;;;;;4.50;1.85;;;;;;;13.54;100.00;101662.88;4959963;28;20087;-90
2022/09/21 02:16:04;;;;;;;3.30;1.30;;;;;;;13.66;100.00;101678.22;4959400;28;20109;-90
2022/09/21 02:18:50;;;;;;;4.15;1.35;;;;;;;13.84;100.00;101694.28;4959734;28;20138;-90
2022/09/21 02:21:30;;;;;;;5.13;1.45;;;;;;;13.76;100.00;101649.81;4973285;28;20047;-90
2022/09/21 02:24:20;;;;;;;3.30;1.20;;;;;;;14.00;100.00;101666.47;4959905;28;20464;-90
2022/09/21 02:26:53;;;;;;;4.03;1.10;;;;;;;14.20;100.00;101686.81;4946546;28;20078;-90
2022/09/21 02:29:26;;;;;;;;;;;;;;;14.25;100.00;101686.63;4959949;28;20065;-91
2022/09/21 02:32:37;;;;;;;4.05;1.13;;;;;;;14.09;100.00;101680.22;4976649;28;20046;-90
2022/09/21 02:35:32;;;;;;;5.68;1.55;;;;;;;14.04;100.00;101683.00;4959190;28;20101;-90
2022/09/21 02:38:03;;;;;;;4.25;1.30;;;;;;;13.87;100.00;101670.50;4956398;28;20069;-89
2022/09/21 02:40:52;;;;;;;4.30;1.33;;;;;;;13.70;100.00;101663.19;4964445;28;20078;-90
2022/09/21 02:43:33;;;;;;;5.03;1.50;;;;;;;13.63;100.00;101664.31;4959433;28;20120;-89
2022/09/21 02:46:26;;;;;;;3.63;1.30;;;;;;;13.75;100.00;101674.41;4950093;28;20050;-90
2022/09/21 02:48:59;;;;;;;3.75;1.38;;;;;;;13.52;100.00;101637.53;4958903;28;20057;-89
2022/09/21 02:51:41;;;;;;;3.42;1.33;;;;;;;13.78;100.00;101660.31;4959240;28;20059;-90
2022/09/21 02:54:11;;;;;;;4.32;1.50;;;;;;;13.78;100.00;101649.78;4967739;28;20050;-90
2022/09/21 02:56:41;;;;;;;4.07;1.50;;;;;;;13.73;100.00;101641.19;4976468;28;20065;-90
2022/09/21 02:59:08;;;;;;;5.82;1.50;;;;;;;13.51;100.00;101638.44;4963686;28;20055;-91
2022/09/21 03:01:38;;;;;;;4.00;1.65;;;;;;;13.49;100.00;101630.59;4959076;28;20497;-91
2022/09/21 03:04:05;;;;;;;3.22;1.30;;;;;;;13.29;100.00;101604.97;4958306;28;20065;-92
2022/09/21 03:06:32;;;;;;;5.28;1.50;;;;;;;13.34;100.00;101615.38;4948701;29;20110;-91
2022/09/21 03:08:59;;;;;;;3.83;1.45;;;;;;;13.32;100.00;101606.69;4944530;28;20045;-91
2022/09/21 03:11:26;;;;;;;3.92;1.45;;;;;;;13.20;100.00;101590.38;4958536;28;20445;-88
2022/09/21 03:13:52;;;;;;;3.58;1.40;;;;;;;13.65;100.00;101642.31;4957955;28;20077;-88
2022/09/21 03:16:20;;;;;;;5.22;1.70;;;;;;;13.61;100.00;101631.94;4953793;29;20063;-89
2022/09/21 03:18:47;;;;;;;3.70;1.40;;;;;;;13.72;100.00;101634.19;4955071;28;20059;-88
2022/09/21 03:21:14;;;;;;;4.57;1.48;;;;;;;13.35;100.00;101583.78;4975100;28;20054;-88
2022/09/21 03:23:41;;;;;;;5.78;2.30;;;;;;;13.46;100.00;101626.31;4975257;28;20456;-88
2022/09/21 03:26:07;;;;;;;5.75;1.30;;;;;;;13.32;100.00;101606.69;4975592;28;20093;-88
2022/09/21 03:28:34;;;;;;;3.47;1.33;;;;;;;13.67;100.00;101629.97;4958448;28;20094;-87
2022/09/21 03:31:01;;;;;;;4.75;1.40;;;;;;;13.47;100.00;101629.81;4951079;28;20082;-90
2022/09/21 03:33:28;;;;;;;3.17;1.38;;;;;;;13.54;100.00;101627.81;4958814;28;20458;-91
2022/09/21 03:35:54;;;;;;;4.63;1.50;;;;;;;13.62;100.00;101633.69;4944742;28;20113;-90
2022/09/21 03:38:21;;;;;;;3.78;1.30;;;;;;;13.33;100.00;101574.19;4957800;28;20054;-90
2022/09/21 03:40:48;;;;;;;5.82;1.55;;;;;;;13.50;100.00;101605.19;4958342;28;20050;-89
2022/09/21 03:43:15;;;;;;;4.53;1.33;;;;;;;13.64;100.00;101627.44;4951320;29;20054;-90
2022/09/21 03:45:43;;;;;;;3.67;1.40;;;;;;;13.50;100.00;101613.91;4946457;28;20055;-91
2022/09/21 03:48:11;;;;;;;3.85;1.60;;;;;;;13.43;100.00;101613.28;4957584;28;20054;-91
2022/09/21 03:50:38;;;;;;;3.70;1.10;;;;;;;13.45;100.00;101616.69;4957103;28;20561;-90
2022/09/21 03:53:06;;;;;;;3.20;1.23;;;;;;;13.14;100.00;101598.50;4954330;28;20047;-90
2022/09/21 03:55:33;;;;;;;3.35;1.40;;;;;;;13.23;100.00;101605.22;4958384;28;20051;-91
2022/09/21 03:58:00;;;;;;;5.70;1.50;;;;;;;13.17;100.00;101594.88;4957651;28;20049;-91
2022/09/21 04:00:27;;;;;;;3.40;1.20;;;;;;;13.38;100.00;101636.25;4974608;28;20059;-91
2022/09/21 04:02:54;;;;;;;3.42;1.25;;;;;;;12.84;100.00;101560.97;4956601;28;20110;-90
2022/09/21 04:05:22;;;;;;;3.78;1.40;;;;;;;13.17;100.00;101616.78;4965467;28;20057;-91
2022/09/21 04:07:49;;;;;;;3.85;1.38;;;;;;;12.97;100.00;101583.28;4944196;29;20063;-91
2022/09/21 04:10:18;;;;;;;4.07;1.52;;;;;;;13.05;100.00;101575.13;4957384;28;20043;-90
2022/09/21 04:12:46;;;;;;;3.95;1.38;;;;;;;12.85;100.00;101549.53;4957929;28;20055;-90
2022/09/21 04:15:17;;;;;;;4.95;1.73;;;;;;;13.07;100.00;101605.72;4953243;29;20110;-89
2022/09/21 04:17:50;;;;;;;4.47;1.60;;;;;;;12.92;100.00;101574.69;4948560;28;20055;-90
2022/09/21 04:20:18;;;;;;;6.68;1.85;;;;;;;12.63;100.00;101580.94;4955791;28;20051;-91
2022/09/21 04:22:46;;;;;;;6.55;1.60;;;;;;;12.53;100.00;101572.47;4957994;28;20052;-90
2022/09/21 04:25:13;;;;;;;4.60;1.67;;;;;;;12.67;100.00;101579.91;4975263;28;20105;-90
2022/09/21 04:27:40;;;;;;;4.72;2.03;;;;;;;12.76;100.00;101587.50;4950693;29;20054;-90
2022/09/21 04:30:09;;;;;;;5.07;1.70;;;;;;;12.58;100.00;101562.69;4968987;28;20043;-90
2022/09/21 04:32:36;;;;;;;5.05;1.48;;;;;;;12.57;100.00;101568.00;4945682;28;20394;-90
2022/09/21 04:35:03;;;;;;;4.85;1.70;;;;;;;12.33;100.00;101573.13;4957510;28;20061;-90
2022/09/21 04:37:29;;;;;;;7.35;1.60;;;;;;;12.34;100.00;101572.22;4974805;28;20050;-90
2022/09/21 04:39:56;;;;;;;5.45;1.60;;;;;;;12.57;100.00;101574.13;4946915;29;20462;-89
2022/09/21 04:42:23;;;;;;;3.47;1.40;;;;;;;12.61;100.00;101599.38;4955161;28;20050;-89
2022/09/21 04:44:50;;;;;;;3.47;1.38;;;;;;;12.33;100.00;101560.00;4953062;29;20055;-89
2022/09/21 04:47:16;;;;;;;3.65;1.50;;;;;;;12.56;100.00;101593.41;4952910;28;20105;-89
2022/09/21 04:49:43;;;;;;;3.30;1.33;;;;;;;12.25;100.00;101541.00;4946238;28;20047;-89
2022/09/21 04:52:10;;;;;;;11.02;1.75;;;;;;;12.55;100.00;101591.69;4951089;28;20065;-89
2022/09/21 04:54:42;;;;;;;4.60;1.50;;;;;;;12.63;100.00;101586.19;4943894;28;20086;-89
2022/09/21 04:57:09;;;;;;;3.80;1.42;;;;;;;12.52;100.00;101539.25;4959584;28;20458;-90
2022/09/21 04:59:35;;;;;;;3.30;1.27;;;;;;;12.71;100.00;101553.50;4973791;28;20097;-90
2022/09/21 05:02:02;;;;;;;3.95;1.58;;;;;;;12.79;100.00;101568.16;4957332;28;20484;-90
2022/09/21 05:04:29;;;;;;;3.35;1.15;;;;;;;12.69;100.00;101557.06;4955197;28;20046;-90
2022/09/21 05:06:58;;;;;;;4.07;1.30;;;;;;;12.76;100.00;101578.75;4946698;28;20055;-90
2022/09/21 05:12:10;;;;;;;3.70;1.20;;;;;;;12.81;100.00;101582.94;4964862;28;20457;-89
2022/09/21 05:14:37;;;;;;;3.15;1.13;;;;;;;12.72;100.00;101562.25;4956924;28;20074;-90
2022/09/21 05:17:04;;;;;;;3.55;1.10;;;;;;;12.54;100.00;101548.78;4967807;28;20671;-90
2022/09/21 05:19:30;;;;;;;5.35;1.70;;;;;;;12.41;100.00;101529.13;4973258;28;20046;-90
2022/09/21 05:21:57;;;;;;;3.42;1.17;;;;;;;12.63;100.00;101558.16;4956015;28;20054;-90
2022/09/21 05:24:24;;;;;;;3.85;1.50;;;;;;;12.71;100.00;101550.00;4956797;28;20062;-90
2022/09/21 05:26:51;;;;;;;5.28;1.40;;;;;;;12.25;100.00;101520.88;4974055;28;20057;-90
2022/09/21 05:29:18;;;;;;;7.65;1.63;;;;;;;12.61;100.00;101583.63;4956314;28;20445;-90
2022/09/21 05:31:53;;;;;;;3.88;1.42;;;;;;;12.30;100.00;101518.06;4952771;28;20485;-90
2022/09/21 05:34:32;;;;;;;3.55;1.30;;;;;;;12.58;100.00;101578.44;4948499;28;20392;-90
2022/09/21 05:37:23;;;;;;;2.80;1.23;;;;;;;12.44;100.00;101571.00;4950949;28;20505;-90
2022/09/21 05:39:50;;;;;;;3.63;1.45;;;;;;;12.42;100.00;101559.69;4965139;28;20533;-90
2022/09/21 05:42:17;;;;;;;3.50;1.38;;;;;;;12.24;100.00;101544.53;4949687;28;20051;-90
2022/09/21 05:44:45;;;;;;;3.35;1.17;;;;;;;12.23;100.00;101529.69;4948290;28;20054;-91
2022/09/21 05:47:38;;;;;;;3.00;1.20;;;;;;;12.46;100.00;101590.19;4971679;28;20082;-88
2022/09/21 05:50:20;;;;;;;2.72;1.20;;;;;;;12.40;100.00;101551.00;4964334;28;20058;-88
2022/09/21 05:53:15;;;;;;;3.40;1.30;;;;;;;12.54;100.00;101582.94;4947752;28;20047;-87
2022/09/21 05:55:52;;;;;;;5.18;1.38;;;;;;;12.41;100.00;101575.50;4956745;28;20101;-87
2022/09/21 05:58:37;;;;;;;5.60;1.40;;;;;;;12.56;100.00;101580.28;4956113;28;20054;-86
2022/09/21 06:01:16;;;;;;;3.63;1.42;;;;;;;12.61;100.00;101583.63;4970580;28;20055;-87
2022/09/21 06:03:43;;;;;;;5.80;2.35;;;;;;;12.28;100.00;101557.50;4945435;28;20142;-90
2022/09/21 06:06:10;;;;;;;6.05;2.40;;;;;;;12.42;100.00;101585.97;4960000;28;20055;-90
2022/09/21 06:08:37;;;;;;;5.80;2.03;;;;;;;12.31;100.00;101557.41;4957467;28;20055;-87
2022/09/21 06:11:04;;;;;;;7.82;1.90;;;;;;;12.61;100.00;101577.50;4958716;28;20074;-91
2022/09/21 06:13:31;;;;;;;5.38;1.83;;;;;;;12.63;100.00;101541.53;4956030;28;20098;-88
2022/09/21 06:16:02;;;;;;;4.68;1.80;;;;;;;12.78;100.00;101543.63;4958427;28;20086;-91
2022/09/21 06:18:28;;;;;;;4.15;1.55;;;;;;;12.74;100.00;101518.38;4958825;28;20054;-90
2022/09/21 06:20:55;;;;;;;3.05;1.23;;;;;;;12.93;100.00;101528.25;4959122;28;20477;-89
2022/09/21 06:23:22;;;;;;;3.65;1.15;;;;;;;12.97;100.00;101543.00;4968681;28;20043;-91
2022/09/21 06:25:53;;;;;;;3.42;1.20;;;;;;;13.07;100.00;101534.75;4960899;28;20532;-88
2022/09/21 06:28:24;;;;;;;4.70;1.40;;;;;;;13.40;100.00;101565.19;4974257;28;20063;-91
2022/09/21 06:30:52;;;;;;;3.88;1.27;;;;;;;13.31;100.00;101542.69;4959119;28;20048;-90
2022/09/21 06:33:22;;;;;;;2.22;0.90;;;;;;;13.46;100.00;101555.28;4977053;28;20061;-91
2022/09/21 06:35:54;;;;;;;3.35;1.25;;;;;;;13.39;100.00;101547.69;4960687;28;20515;-91
2022/09/21 06:38:22;;;;;;;3.53;1.50;;;;;;;13.42;100.00;101564.22;4954334;28;20054;-90
2022/09/21 06:40:50;;;;;;;4.75;1.77;;;;;;;13.25;100.00;101551.63;4953668;28;20043;-90
2022/09/21 06:43:17;;;;;;;4.70;1.35;;;;;;;13.47;100.00;101575.44;4955999;29;20051;-90
2022/09/21 06:45:56;;;;;;;3.13;1.20;;;;;;;13.69;100.00;101577.28;4963418;28;20059;-89
2022/09/21 06:48:24;;;;;;;5.38;1.50;;;;;;;13.68;100.00;101526.41;4964537;28;20085;-91
2022/09/21 06:50:58;;;;;;;3.60;1.42;;;;;;;14.16;100.00;101550.88;4962573;28;20465;-91
2022/09/21 06:53:27;;;;;;;3.85;1.30;;;;;;;14.94;100.00;101567.06;4948743;28;20059;-91
2022/09/21 06:56:03;;;;;;;2.17;1.10;;;;;;;14.57;100.00;101511.47;4966317;28;20055;-91
2022/09/21 06:58:31;;;;;;;4.05;1.50;;;;;;;14.29;100.00;101503.84;4966096;28;20130;-90
2022/09/21 07:00:57;;;;;;;5.35;1.85;;;;;;;14.42;100.00;101570.91;4982028;28;20058;-90
2022/09/21 07:03:24;;;;;;;3.45;1.30;;;;;;;14.01;100.00;101510.22;4965709;28;20063;-91
2022/09/21 07:05:51;;;;;;;6.18;1.98;;;;;;;14.27;100.00;101539.06;4963461;28;20129;-91
2022/09/21 07:08:19;;;;;;;5.47;2.10;;;;;;;15.19;100.00;101543.13;4964559;28;20109;-90
2022/09/21 07:11:05;;;;;;;4.43;1.42;;;;;;;16.02;100.00;101520.88;4968070;28;20117;-90
2022/09/21 07:13:34;;;;;;;4.85;1.67;;;;;;;16.36;100.00;101513.09;4967022;28;20055;-92
2022/09/21 07:16:06;;;;;;;5.78;1.90;;;;;;;16.98;100.00;101542.59;4951274;28;20062;-92
2022/09/21 07:18:33;;;;;;;4.88;1.70;;;;;;;17.64;100.00;101547.91;4966355;28;20074;-90
2022/09/21 07:21:10;;;;;;;5.13;1.50;;;;;;;17.88;100.00;101528.13;4967489;28;20053;-92
2022/09/21 07:23:37;;;;;;;5.13;1.88;;;;;;;18.07;100.00;101501.44;4966345;28;20677;-91
2022/09/21 07:26:10;;;;;;;5.45;1.65;;;;;;;18.48;100.00;101517.59;4954924;28;20452;-91
2022/09/21 07:28:37;;;;;;;5.15;1.70;;;;;;;18.38;100.00;101540.31;4954934;28;20046;-91
2022/09/21 07:31:13;;;;;;;6.57;2.05;;;;;;;18.17;100.00;101527.34;4967256;28;20061;-91
2022/09/21 07:33:42;;;;;;;7.00;1.88;;;;;;;18.64;100.00;101511.41;4966646;28;20046;-92
2022/09/21 07:36:11;;;;;;;5.82;1.85;;;;;;;18.65;100.00;101521.94;4955611;28;20053;-91
2022/09/21 07:38:41;;;;;;;6.05;2.10;;;;;;;18.93;100.00;101539.75;4968140;28;20161;-91
2022/09/21 07:41:11;;;;;;;4.70;1.55;;;;;;;18.86;100.00;101534.91;4967042;28;20110;-91
2022/09/21 07:43:39;;;;;;;9.15;1.88;;;;;;;19.29;100.00;101543.75;4967105;28;20070;-91
2022/09/21 07:46:20;;;;;;;4.38;1.27;;;;;;;19.10;100.00;101490.09;4955973;28;20435;-92
2022/09/21 07:48:47;;;;;;;5.05;1.50;;;;;;;19.47;100.00;101539.09;4963553;28;20105;-92
2022/09/21 07:51:14;;;;;;;3.80;1.33;;;;;;;19.33;100.00;101494.81;4949753;28;20054;-92
2022/09/21 07:53:46;;;;;;;4.78;1.50;;;;;;;19.48;100.00;101497.47;4963901;28;20051;-92
2022/09/21 07:56:16;;;;;;;6.37;1.80;;;;;;;19.49;100.00;101542.50;4965520;28;20066;-91
2022/09/21 08:01:29;;;;;;;5.85;1.90;;;;;;;19.99;100.00;101526.13;4980310;28;20494;-92
2022/09/21 08:03:57;;;;;;;5.40;1.60;;;;;;;20.15;100.00;101508.25;4956021;28;20050;-92
2022/09/21 08:06:27;;;;;;;5.40;1.70;;;;;;;19.92;100.00;101531.00;4962058;28;20050;-93
2022/09/21 08:08:53;;;;;;;4.72;1.50;;;;;;;20.05;100.00;101523.09;4961909;28;20060;-92
2022/09/21 08:11:25;;;;;;;3.92;1.35;;;;;;;20.26;100.00;101529.66;4961767;28;20113;-93
2022/09/21 08:13:56;;;;;;;5.95;1.50;;;;;;;20.22;100.00;101514.00;4957106;29;20130;-93
2022/09/21 08:16:24;;;;;;;6.35;1.73;;;;;;;20.51;100.00;101516.53;4958949;28;20047;-92
2022/09/21 08:18:51;;;;;;;5.00;1.70;;;;;;;20.47;100.00;101510.56;4957241;29;20082;-91
2022/09/21 08:21:19;;;;;;;5.15;1.70;;;;;;;20.70;100.00;101522.34;4948709;28;20418;-92
2022/09/21 08:23:49;;;;;;;4.97;1.67;;;;;;;20.62;100.00;101509.56;4946455;28;20055;-91
2022/09/21 08:26:18;;;;;;;4.43;1.48;;;;;;;20.85;100.00;101493.81;4962401;28;20073;-92
2022/09/21 08:28:51;;;;;;;6.18;1.92;;;;;;;21.27;100.00;101504.25;4962552;28;20070;-92
2022/09/21 08:31:20;;;;;;;4.97;1.67;;;;;;;20.65;100.00;101512.00;4962166;28;20390;-93
2022/09/21 08:33:48;;;;;;;6.47;2.50;;;;;;;20.14;100.00;101490.59;4961798;28;20511;-92
2022/09/21 08:36:16;;;;;;;4.85;1.95;;;;;;;20.67;100.00;101522.56;4962324;28;20059;-93
2022/09/21 08:38:43;;;;;;;8.63;1.95;;;;;;;20.66;100.00;101497.75;4961421;28;20390;-92
2022/09/21 08:41:48;;;;;;;6.00;1.67;;;;;;;21.12;100.00;101509.69;4961299;28;20481;-92
2022/09/21 08:44:51;;;;;;;4.80;1.77;;;;;;;20.75;100.00;101514.91;4939304;28;20047;-93
2022/09/21 08:47:40;;;;;;;6.47;2.05;;;;;;;20.67;100.00;101482.66;4941975;28;20056;-92
2022/09/21 08:50:23;;;;;;;6.35;1.67;;;;;;;21.03;100.00;101513.88;4961861;28;20477;-92
2022/09/21 08:52:52;;;;;;;4.53;1.60;;;;;;;21.08;100.00;101489.56;4961482;28;20062;-91
2022/09/21 08:55:20;;;;;;;5.85;2.03;;;;;;;20.80;100.00;101474.66;4950945;28;20590;-91
2022/09/21 08:57:46;;;;;;;6.90;2.05;;;;;;;20.83;100.00;101495.75;4961107;28;20046;-91
2022/09/21 09:00:18;;;;;;;5.55;1.98;;;;;;;21.28;100.00;101488.16;4957895;28;20639;-91
2022/09/21 09:03:12;;;;;;;6.72;2.40;;;;;;;20.72;100.00;101508.94;4961259;28;20769;-92
2022/09/21 09:05:59;;;;;;;7.47;2.78;;;;;;;21.11;100.00;101500.00;4945500;29;20449;-92
2022/09/21 09:08:34;;;;;;;5.30;2.15;;;;;;;21.20;100.00;101507.34;4948731;29;20058;-91
2022/09/21 09:11:28;;;;;;;9.77;3.55;;;;;;;20.09;100.00;101450.16;4958418;28;20051;-92
2022/09/21 09:14:15;;;;;;;8.45;2.97;;;;;;;20.38;100.00;101465.97;4961954;28;20456;-92
2022/09/21 09:17:01;;;;;;;7.70;3.03;;;;;;;20.73;100.00;101506.16;4961389;28;20054;-92
2022/09/21 09:19:27;;;;;;;8.50;3.10;;;;;;;20.90;100.00;101504.16;4960447;28;20101;-91
2022/09/21 09:21:55;;;;;;;8.20;3.55;;;;;;;20.45;100.00;101476.09;4961249;28;20106;-91
2022/09/21 09:24:45;;;;;;;8.98;3.80;;;;;;;20.22;100.00;101512.22;4960526;28;20054;-91
2022/09/21 09:27:23;;;;;;;9.85;4.43;;;;;;;20.35;100.00;101476.81;4959457;28;20046;-90
2022/09/21 09:30:00;;;;;;;11.77;4.38;;;;;;;20.35;100.00;101498.94;4960812;28;20046;-91
2022/09/21 09:32:41;;;;;;;11.68;5.32;;;;;;;20.06;100.00;101480.47;4947616;28;20477;-91
2022/09/21 09:35:49;;;;;;;15.77;6.35;;;;;;;20.00;100.00;101493.28;4961145;28;20050;-90
2022/09/21 09:38:20;;;;;;;11.13;4.95;;;;;;;19.79;100.00;101487.56;4874721;29;20495;-91
2022/09/21 09:41:13;;;;;;;10.20;4.72;;;;;;;20.13;100.00;101470.25;4867423;29;20404;-91
2022/09/21 09:43:47;;;;;;;11.97;5.80;;;;;;;20.08;100.00;101470.56;4949765;28;20055;-90
2022/09/21 09:46:52;;;;;;;13.55;7.18;;;;;;;19.89;100.00;101484.22;4962213;28;20055;-92
2022/09/21 09:49:38;;;;;;;12.90;6.55;;;;;;;20.14;100.00;101495.06;4962645;28;20102;-92
2022/09/21 09:52:11;;;;;;;11.77;5.05;;;;;;;19.90;100.00;101421.28;4970494;28;20070;-91
2022/09/21 09:54:38;;;;;;;;;;;;;;;20.46;100.00;101495.56;4964913;28;20051;-92
2022/09/21 09:57:08;;;;;;;14.60;7.00;;;;;;;20.29;100.00;101447.03;4961069;28;19922;-91
2022/09/21 09:59:57;;;;;;;11.52;6.18;;;;;;;19.94;100.00;101438.75;4963593;28;20046;-93
2022/09/21 10:02:28;;;;;;;13.52;6.38;;;;;;;19.62;100.00;101470.88;4964052;28;20062;-92
2022/09/21 10:05:04;;;;;;;12.18;4.90;;;;;;;19.87;100.00;101459.53;4965639;28;20055;-92
2022/09/21 10:07:44;;;;;;;12.10;5.72;;;;;;;20.17;100.00;101468.25;4964961;28;20512;-92
2022/09/21 10:10:20;;;;;;;9.50;4.25;;;;;;;20.44;100.00;101478.84;4946784;28;20313;-92
2022/09/21 10:12:49;;;;;;;12.35;6.18;;;;;;;20.07;100.00;101458.22;4959264;28;20051;-92
2022/09/21 10:15:22;;;;;;;11.25;5.40;;;;;;;19.97;100.00;101437.69;4959967;28;20130;-92
2022/09/21 10:18:36;;;;;;;12.82;6.63;;;;;;;20.09;100.00;101463.44;4948381;29;20055;-91
2022/09/21 10:21:08;;;;;;;13.65;6.88;;;;;;;19.95;100.00;101443.09;4934689;28;20058;-90
2022/09/21 10:23:37;;;;;;;14.15;6.38;;;;;;;19.87;100.00;101483.47;4980931;28;20086;-89
2022/09/21 10:26:08;;;;;;;14.15;6.03;;;;;;;19.79;100.00;101455.69;4964126;28;20512;-90
2022/09/21 10:28:36;;;;;;;11.93;5.40;;;;;;;20.26;100.00;101436.59;4962385;28;20078;-91
2022/09/21 10:31:22;;;;;;;11.65;4.75;;;;;;;20.59;100.00;101472.50;4959462;29;20172;-92
2022/09/21 10:33:53;;;;;;;12.20;5.88;;;;;;;20.12;100.00;101451.78;4966518;28;20051;-92
2022/09/21 10:36:28;;;;;;;10.52;4.57;;;;;;;20.37;100.00;101429.69;4963672;28;20054;-92
2022/09/21 10:38:55;;;;;;;14.68;5.55;;;;;;;20.20;100.00;101418.41;4965092;28;20062;-91
2022/09/21 10:41:22;;;;;;;12.10;4.60;;;;;;;20.57;100.00;101429.16;4962284;28;20047;-91
2022/09/21 10:43:49;;;;;;;13.25;5.45;;;;;;;20.34;100.00;101446.69;4964959;28;20054;-92
2022/09/21 10:46:16;;;;;;;10.50;4.03;;;;;;;20.83;100.00;101453.16;4983001;28;20051;-92
2022/09/21 10:48:45;;;;;;;8.77;4.20;;;;;;;20.78;100.00;101408.22;4949667;28;20058;-91
2022/09/21 10:51:28;;;;;;;10.50;4.68;;;;;;;20.73;100.00;101428.16;4964617;28;20046;-92
2022/09/21 10:53:56;;;;;;;11.90;4.40;;;;;;;21.22;100.00;101438.84;4980317;28;20063;-91
2022/09/21 10:56:23;;;;;;;9.95;4.10;;;;;;;20.81;100.00;101404.53;4963922;28;20118;-92
2022/09/21 10:59:20;;;;;;;9.93;4.40;;;;;;;21.29;100.00;101443.75;4963296;28;20037;-92
2022/09/21 11:01:58;;;;;;;11.23;4.63;;;;;;;20.65;100.00;101420.72;4953191;28;20086;-92
2022/09/21 11:04:36;;;;;;;10.68;4.18;;;;;;;21.03;100.00;101439.31;4963928;28;20141;-93
2022/09/21 11:07:18;;;;;;;11.10;4.82;;;;;;;20.55;100.00;101424.91;4963093;28;20105;-92
2022/09/21 11:10:09;;;;;;;10.77;5.03;;;;;;;20.41;100.00;101372.66;4963950;28;20055;-93
2022/09/21 11:13:26;;;;;;;9.95;4.50;;;;;;;21.12;100.00;101416.50;4964440;28;20292;-93
2022/09/21 11:16:15;;;;;;;9.65;4.05;;;;;;;21.10;100.00;101428.22;4932397;28;20054;-93
2022/09/21 11:19:00;;;;;;;10.68;4.93;;;;;;;20.79;100.00;101438.38;4964109;28;20469;-93
2022/09/21 11:21:43;;;;;;;10.15;5.05;;;;;;;20.41;100.00;101405.44;4964724;28;20051;-92
2022/09/21 11:24:19;;;;;;;9.98;4.63;;;;;;;20.89;100.00;101411.97;4981556;28;20054;-92
2022/09/21 11:27:02;;;;;;;10.40;4.07;;;;;;;20.28;100.00;101357.56;4955860;28;20122;-92
2022/09/21 11:29:55;;;;;;;11.48;4.28;;;;;;;20.97;100.00;101396.31;4966672;28;20055;-94
2022/09/21 11:32:53;;;;;;;9.32;4.32;;;;;;;20.70;100.00;101368.03;4969574;28;20149;-95
2022/09/21 11:35:57;;;;;;;12.88;4.80;;;;;;;21.23;100.00;101389.13;4963192;29;20107;-93
2022/09/21 11:38:42;;;;;;;11.63;4.90;;;;;;;21.41;100.00;101394.91;4961321;28;20051;-93
2022/09/21 11:41:34;;;;;;;10.38;4.15;;;;;;;21.40;100.00;101395.88;4966609;28;20159;-93
2022/09/21 11:44:31;;;;;;;11.70;4.88;;;;;;;21.27;100.00;101398.56;4967669;28;20066;-93
2022/09/21 11:47:16;;;;;;;11.93;4.43;;;;;;;20.85;100.00;101382.88;4954267;28;20095;-94
2022/09/21 11:50:16;;;;;;;8.93;3.95;;;;;;;20.92;100.00;101393.13;4972825;28;20138;-95
2022/09/21 11:53:11;;;;;;;10.15;4.03;;;;;;;21.19;100.00;101390.28;4954397;29;20067;-93
2022/09/21 11:55:59;;;;;;;9.48;3.97;;;;;;;20.97;100.00;101365.19;4955279;28;20046;-94